»·PEaware :: FDX1014 KSEA-KOAK

FDX1014 :: KSEA-KOAK

FLIGHT INFORMATION

Flight Status: Arrived
Operator:
Federal Express
More flights by this operator :: More flights under this callsign
Pilot: Jim M. (18055)
Aircraft: BOEING 777-200
(B772)
More flights by this aircraft type
Origin: KSEA Seattle-Tacoma Intl
United States
Destination: KOAK Metro Oakland Intl
United States
More flights between these airports :: More routes between these airports
Route: +HAROB6 HISKU Q5 HUPTU SPAMY WNDSR2
File this flight plan on PilotEdge
Remarks:
Altitude:
(Current/Filed)
39,000ft
Speed:
(Current/Filed)
450kts
Departed: 29-Aug-18 09:38 AM
Arrived: 29-Aug-18 11:15 AM
Distance/Time
Traveled:
584nm/1:36
Distance/Time
To Go:
Arrived

Flight Plot

Page will automatically refresh every two minutes.

Flight plan parsing failed; only flown route is shown


Map Options




Map Legend


Flown Route
Filed Route
Departure Airport
Arrival Airport
Navaid (VOR, NDB)
Fix

Horizontal Profiles

Position Reports

Time Latitude Longitude Heading Altitude Ground
Speed
29-Aug-18 08:53 47.462613 -122.302761 0 446ft 0kts
29-Aug-18 08:54 47.462613 -122.302761 0 446ft 0kts
29-Aug-18 08:55 47.462613 -122.302761 0 446ft 0kts
29-Aug-18 08:56 47.462613 -122.302761 0 446ft 0kts
29-Aug-18 08:57 47.462613 -122.302761 0 446ft 0kts
29-Aug-18 08:58 47.462613 -122.302761 0 446ft 0kts
29-Aug-18 08:59 47.462613 -122.302761 0 446ft 0kts
29-Aug-18 09:00 47.462613 -122.302761 0 446ft 0kts
29-Aug-18 09:01 47.462613 -122.302761 0 446ft 0kts
29-Aug-18 09:02 47.462613 -122.302761 0 446ft 0kts
29-Aug-18 09:03 47.462613 -122.302761 0 446ft 0kts
29-Aug-18 09:04 47.462613 -122.302761 0 446ft 0kts
29-Aug-18 09:05 47.462613 -122.302761 0 446ft 0kts
29-Aug-18 09:06 47.462613 -122.302761 0 446ft 0kts
29-Aug-18 09:07 47.462613 -122.302761 0 446ft 0kts
29-Aug-18 09:08 47.462613 -122.302761 0 446ft 0kts
29-Aug-18 09:09 47.462613 -122.302761 0 446ft 0kts
29-Aug-18 09:10 47.462613 -122.302761 0 446ft 0kts
29-Aug-18 09:11 47.462613 -122.302761 0 446ft 0kts
29-Aug-18 09:12 47.462613 -122.302761 0 446ft 0kts
29-Aug-18 09:13 47.462613 -122.302761 0 446ft 0kts
29-Aug-18 09:14 47.462613 -122.302761 0 446ft 0kts
29-Aug-18 09:15 47.462613 -122.302761 0 446ft 0kts
29-Aug-18 09:16 47.462613 -122.302761 0 446ft 0kts
29-Aug-18 09:17 47.462613 -122.302761 0 446ft 0kts
29-Aug-18 09:18 47.462613 -122.302761 0 446ft 0kts
29-Aug-18 09:19 47.462613 -122.302761 0 446ft 0kts
29-Aug-18 09:20 47.462613 -122.302761 0 446ft 0kts
29-Aug-18 09:21 47.462613 -122.302761 0 446ft 0kts
29-Aug-18 09:22 47.462613 -122.302761 0 446ft 0kts
29-Aug-18 09:23 47.462613 -122.302761 0 446ft 0kts
29-Aug-18 09:24 47.462613 -122.302761 0 446ft 0kts
29-Aug-18 09:25 47.462613 -122.302761 0 446ft 0kts
29-Aug-18 09:26 47.462613 -122.302761 0 446ft 0kts
29-Aug-18 09:27 47.462613 -122.302761 0 446ft 0kts
29-Aug-18 09:28 47.462613 -122.302761 0 446ft 0kts
29-Aug-18 09:29 47.462227 -122.302761 0 446ft 2kts
29-Aug-18 09:30 47.461580 -122.302761 0 446ft 2kts
29-Aug-18 09:31 47.461196 -122.302762 359 446ft 1kts
29-Aug-18 09:32 47.461289 -122.302763 359 446ft 0kts
29-Aug-18 09:33 47.461289 -122.302763 359 446ft 0kts
29-Aug-18 09:34 47.461899 -122.303740 265 446ft 0kts
29-Aug-18 09:35 47.461874 -122.304051 261 446ft 2kts
29-Aug-18 09:36 47.463097 -122.305398 330 446ft 5kts
29-Aug-18 09:37 47.463391 -122.305824 305 446ft 0kts
29-Aug-18 09:38 47.463522 -122.307396 225 446ft 6kts
29-Aug-18 09:39 47.442846 -122.307697 179 814ft 179kts
29-Aug-18 09:40 47.386308 -122.308630 181 4082ft 247kts
29-Aug-18 09:41 47.321842 -122.346562 242 7999ft 276kts
29-Aug-18 09:42 47.306856 -122.459164 269 11191ft 288kts
29-Aug-18 09:43 47.311169 -122.589492 271 14304ft 350kts
29-Aug-18 09:44 47.313272 -122.737937 263 18301ft 370kts
29-Aug-18 09:45 47.285522 -122.887631 248 21843ft 391kts
29-Aug-18 09:46 47.235396 -123.034141 231 24920ft 417kts
29-Aug-18 09:47 47.146254 -123.148282 218 28053ft 435kts
29-Aug-18 09:48 47.030758 -123.211319 187 30641ft 472kts
29-Aug-18 09:49 46.900664 -123.200254 181 33905ft 463kts
29-Aug-18 09:50 46.771943 -123.184937 181 36061ft 463kts
29-Aug-18 09:51 46.643827 -123.170619 181 37919ft 462kts
29-Aug-18 09:52 46.515027 -123.156468 181 39016ft 464kts
29-Aug-18 09:53 46.386577 -123.142464 181 39026ft 463kts
29-Aug-18 09:54 46.258396 -123.128562 181 39033ft 462kts
29-Aug-18 09:55 46.129946 -123.114697 181 39037ft 462kts
29-Aug-18 09:56 46.001584 -123.100906 181 39030ft 462kts
29-Aug-18 09:57 45.873218 -123.087181 181 39016ft 463kts
29-Aug-18 09:58 45.744817 -123.073512 181 39003ft 463kts
29-Aug-18 09:59 45.616235 -123.059886 181 39000ft 463kts
29-Aug-18 10:00 45.488108 -123.046373 181 39001ft 463kts
29-Aug-18 10:01 45.359117 -123.032830 180 39008ft 463kts
29-Aug-18 10:02 45.230755 -123.019415 180 39005ft 463kts
29-Aug-18 10:03 45.101786 -123.005997 180 39004ft 464kts
29-Aug-18 10:04 44.973099 -122.992668 180 39001ft 464kts
29-Aug-18 10:05 44.844243 -122.979381 180 39000ft 465kts
29-Aug-18 10:06 44.715017 -122.966069 180 39007ft 465kts
29-Aug-18 10:07 44.585573 -122.952871 180 39018ft 465kts
29-Aug-18 10:08 44.456743 -122.941425 182 39029ft 464kts
29-Aug-18 10:09 44.327693 -122.938568 183 39030ft 464kts
29-Aug-18 10:10 44.198133 -122.934869 183 39030ft 464kts
29-Aug-18 10:11 44.068939 -122.930938 183 39029ft 464kts
29-Aug-18 10:12 43.939875 -122.927021 182 39030ft 466kts
29-Aug-18 10:13 43.810057 -122.923079 182 39029ft 467kts
29-Aug-18 10:14 43.679821 -122.919150 182 39030ft 467kts
29-Aug-18 10:15 43.549606 -122.915240 182 39030ft 468kts
29-Aug-18 10:16 43.419738 -122.911358 182 39030ft 468kts
29-Aug-18 10:17 43.289663 -122.907486 181 39032ft 468kts
29-Aug-18 10:18 43.159273 -122.903621 181 39048ft 469kts
29-Aug-18 10:19 43.028497 -122.899760 181 39057ft 469kts
29-Aug-18 10:20 42.898266 -122.895930 181 39067ft 469kts
29-Aug-18 10:21 42.767667 -122.892099 181 39070ft 469kts
29-Aug-18 10:22 42.658765 -122.888925 181 39066ft 470kts
29-Aug-18 10:23 42.506047 -122.884500 181 39045ft 470kts
29-Aug-18 10:24 42.375028 -122.880772 181 39030ft 470kts
29-Aug-18 10:25 42.266369 -122.877639 181 39035ft 470kts
29-Aug-18 10:26 42.135463 -122.873906 181 39050ft 470kts
29-Aug-18 10:27 41.982832 -122.869553 180 39065ft 470kts
29-Aug-18 10:28 41.873294 -122.866449 180 39072ft 470kts
29-Aug-18 10:29 41.742580 -122.862763 180 39079ft 471kts
29-Aug-18 10:30 41.611560 -122.859073 180 39085ft 471kts
29-Aug-18 10:31 41.480181 -122.855403 180 39091ft 471kts
29-Aug-18 10:32 41.349470 -122.851774 180 39097ft 471kts
29-Aug-18 10:33 41.218382 -122.844713 178 39098ft 471kts
29-Aug-18 10:34 41.087528 -122.836626 179 39096ft 471kts
29-Aug-18 10:35 40.956464 -122.828793 178 39095ft 471kts
29-Aug-18 10:36 40.825607 -122.821011 178 39097ft 471kts
29-Aug-18 10:37 40.694557 -122.813277 178 39098ft 470kts
29-Aug-18 10:38 40.564007 -122.805604 178 39090ft 471kts
29-Aug-18 10:39 40.432716 -122.797919 178 39072ft 470kts
29-Aug-18 10:40 40.302238 -122.790312 178 39063ft 470kts
29-Aug-18 10:41 40.171220 -122.782702 178 39059ft 470kts
29-Aug-18 10:42 40.040395 -122.775133 178 39063ft 470kts
29-Aug-18 10:43 39.915555 -122.767938 178 38040ft 443kts
29-Aug-18 10:44 39.791595 -122.760802 178 35718ft 446kts
29-Aug-18 10:45 39.667477 -122.753698 178 33526ft 447kts
29-Aug-18 10:46 39.543458 -122.746637 178 31295ft 445kts
29-Aug-18 10:47 39.423683 -122.706431 158 29120ft 456kts
29-Aug-18 10:48 39.307027 -122.645229 159 26910ft 445kts
29-Aug-18 10:49 39.194757 -122.591884 167 25671ft 409kts
29-Aug-18 10:50 39.083564 -122.574611 175 23801ft 397kts
29-Aug-18 10:51 38.975940 -122.553680 169 22059ft 386kts
29-Aug-18 10:52 38.872048 -122.526145 170 20416ft 375kts
29-Aug-18 10:53 38.771044 -122.500947 170 18822ft 365kts
29-Aug-18 10:54 38.672165 -122.476587 171 17263ft 357kts
29-Aug-18 10:55 38.574756 -122.461957 174 15600ft 346kts
29-Aug-18 10:56 38.480264 -122.447921 174 14123ft 337kts
29-Aug-18 10:57 38.389072 -122.434110 173 12701ft 323kts
29-Aug-18 10:58 38.301056 -122.420790 173 11328ft 311kts
29-Aug-18 10:59 38.216696 -122.407954 173 10009ft 300kts
29-Aug-18 11:00 38.138772 -122.396007 172 8792ft 268kts
29-Aug-18 11:01 38.066554 -122.384972 172 7663ft 258kts
29-Aug-18 11:02 38.000094 -122.357819 147 6929ft 252kts
29-Aug-18 11:03 37.942897 -122.304166 143 5620ft 259kts
29-Aug-18 11:04 37.888923 -122.252644 144 5299ft 226kts
29-Aug-18 11:05 37.840355 -122.206516 144 4938ft 217kts
29-Aug-18 11:06 37.791976 -122.160447 142 4949ft 218kts
29-Aug-18 11:07 37.752527 -122.101816 129 4941ft 220kts
29-Aug-18 11:08 37.714997 -122.040546 130 4945ft 220kts
29-Aug-18 11:09 37.678465 -121.979191 127 4942ft 219kts
29-Aug-18 11:10 37.631861 -121.965645 212 5007ft 190kts
29-Aug-18 11:11 37.592463 -122.007191 239 4151ft 186kts
29-Aug-18 11:12 37.604388 -122.071081 299 3625ft 193kts
29-Aug-18 11:13 37.638393 -122.119804 307 2194ft 184kts
29-Aug-18 11:14 37.673144 -122.172037 307 725ft 195kts
29-Aug-18 11:15 37.702896 -122.216416 309 21ft 147kts
29-Aug-18 11:16 37.714544 -122.232843 349 19ft 12kts
29-Aug-18 11:17 37.715713 -122.232742 47 19ft 5kts
29-Aug-18 11:18 37.714601 -122.230384 129 19ft 15kts
29-Aug-18 11:19 37.712137 -122.226624 126 19ft 12kts
29-Aug-18 11:20 37.713940 -122.222233 104 19ft 5kts
29-Aug-18 11:21 37.715269 -122.219250 44 19ft 10kts
29-Aug-18 11:22 37.717078 -122.219027 47 19ft 10kts
29-Aug-18 11:23 37.718051 -122.219129 320 19ft 0kts
29-Aug-18 11:24 37.718051 -122.219129 320 19ft 0kts
29-Aug-18 11:25 37.718051 -122.219129 320 19ft 0kts

Navigation Log

Ident Type
Flight plan parsing failed, navigation log unavailable